Time;durP1;ratioP1;P1;durP2;ratioP2;P2;SDS_P1;SDS_P2;PMS_P1;PMS_P2;Temp;Humidity;BMP_temperature;BMP_pressure;BME280_temperature;BME280_humidity;BME280_pressure;Samples;Min_cycle;Max_cycle;Signal;HPM_P1;HPM_P2
2022/01/26 00:06:26;;;;;;;2.00;1.15;;;-2.70;99.90;;;;;;5053545;28;20419;-76
2022/01/26 00:08:51;;;;;;;1.92;0.90;;;-2.70;99.90;;;;;;5053472;28;20021;-76
2022/01/26 00:11:17;;;;;;;0.95;0.80;;;-2.70;99.90;;;;;;5053268;28;20028;-77
2022/01/26 00:13:43;;;;;;;4.25;1.00;;;-2.70;99.90;;;;;;5053577;28;20036;-76
2022/01/26 00:16:18;;;;;;;1.60;0.88;;;-2.70;99.90;;;;;;5053460;28;20029;-78
2022/01/26 00:18:44;;;;;;;1.23;1.08;;;-2.80;99.90;;;;;;5053264;28;20036;-79
2022/01/26 00:21:17;;;;;;;1.67;0.80;;;-2.80;99.90;;;;;;5053393;28;20031;-79
2022/01/26 00:24:08;;;;;;;1.17;0.90;;;-2.80;99.90;;;;;;5053159;28;20036;-79
2022/01/26 00:29:19;;;;;;;2.67;0.90;;;-2.90;99.90;;;;;;5053308;28;20035;-82
2022/01/26 00:40:22;;;;;;;2.22;0.90;;;-3.00;99.90;;;;;;5052865;28;20585;-78
2022/01/26 00:42:51;;;;;;;1.08;0.90;;;-3.00;99.90;;;;;;5052850;28;20021;-78
2022/01/26 00:45:21;;;;;;;2.85;1.00;;;-3.10;99.90;;;;;;5052878;28;20033;-78
2022/01/26 00:47:47;;;;;;;1.02;0.93;;;-3.20;99.90;;;;;;5052995;28;20413;-78
2022/01/26 00:50:15;;;;;;;3.72;0.90;;;-3.20;99.90;;;;;;5052923;28;20086;-77
2022/01/26 00:52:43;;;;;;;3.20;0.93;;;-3.30;99.90;;;;;;5052631;28;20013;-78
2022/01/26 00:55:14;;;;;;;1.10;1.00;;;-3.30;99.90;;;;;;5052491;28;20115;-78
2022/01/26 00:57:41;;;;;;;1.80;1.65;;;-3.40;99.90;;;;;;5052461;28;20423;-77
2022/01/26 01:00:11;;;;;;;3.00;1.25;;;-3.40;99.90;;;;;;5052719;28;20025;-78
2022/01/26 01:02:37;;;;;;;1.65;0.95;;;-3.50;99.90;;;;;;5052793;28;20029;-78
2022/01/26 01:05:12;;;;;;;1.15;1.00;;;-3.50;99.90;;;;;;5052539;28;20029;-78
2022/01/26 01:07:39;;;;;;;1.75;0.80;;;-3.60;99.90;;;;;;5052373;28;20480;-77
2022/01/26 01:10:06;;;;;;;2.28;1.10;;;-3.60;99.90;;;;;;5052139;28;20373;-77
2022/01/26 01:12:38;;;;;;;3.30;1.10;;;-3.70;99.90;;;;;;5052496;28;20025;-77
2022/01/26 01:15:05;;;;;;;3.85;1.00;;;-3.70;99.90;;;;;;5052089;28;20035;-77
2022/01/26 01:17:37;;;;;;;2.35;1.10;;;-3.80;99.90;;;;;;5052017;28;20033;-77
2022/01/26 01:25:45;;;;;;;1.30;1.08;;;-3.90;99.90;;;;;;5052375;28;20021;-77
2022/01/26 01:28:13;;;;;;;1.63;0.82;;;-4.00;99.90;;;;;;5051832;28;20116;-77
2022/01/26 01:30:45;;;;;;;1.67;0.90;;;-4.00;99.90;;;;;;5052343;28;20039;-77
2022/01/26 01:33:17;;;;;;;2.42;0.90;;;-4.10;99.90;;;;;;5052112;28;20098;-76
2022/01/26 01:35:44;;;;;;;1.27;0.90;;;-4.10;99.90;;;;;;5051057;28;20025;-75
2022/01/26 01:38:15;;;;;;;1.63;0.98;;;-4.10;99.90;;;;;;5051521;28;20078;-76
2022/01/26 01:40:44;;;;;;;1.63;0.98;;;-4.10;99.90;;;;;;5052231;28;20024;-76
2022/01/26 01:43:11;;;;;;;1.20;1.10;;;-4.10;99.90;;;;;;5051679;28;20439;-76
2022/01/26 01:45:41;;;;;;;1.08;0.80;;;-4.10;99.90;;;;;;5052008;28;20508;-76
2022/01/26 01:48:07;;;;;;;3.42;1.00;;;-4.20;99.90;;;;;;5051557;28;20477;-74
2022/01/26 01:50:40;;;;;;;1.15;1.05;;;-4.10;99.90;;;;;;5051813;28;20029;-74
2022/01/26 01:53:05;;;;;;;1.40;1.00;;;-4.10;99.90;;;;;;5051823;28;20170;-74
2022/01/26 01:55:32;;;;;;;2.05;0.90;;;-4.10;99.90;;;;;;5051962;28;20108;-74
2022/01/26 01:57:59;;;;;;;1.65;1.23;;;-4.10;99.90;;;;;;5051552;28;20608;-74
2022/01/26 02:00:27;;;;;;;0.88;0.80;;;-4.20;99.90;;;;;;5051845;28;20399;-74
2022/01/26 02:02:53;;;;;;;3.03;0.98;;;-4.30;99.90;;;;;;5051927;28;20025;-76
2022/01/26 02:05:19;;;;;;;1.38;1.27;;;-4.30;99.90;;;;;;5051716;28;20060;-75
2022/01/26 02:07:45;;;;;;;2.97;1.08;;;-4.40;99.90;;;;;;5051818;28;20074;-75
2022/01/26 02:10:11;;;;;;;1.95;0.90;;;-4.40;99.90;;;;;;5051507;28;20426;-76
2022/01/26 02:12:45;;;;;;;0.90;0.90;;;-4.40;99.90;;;;;;5051634;28;20056;-75
2022/01/26 02:15:18;;;;;;;2.00;0.90;;;-4.40;99.90;;;;;;5051800;28;20037;-75
2022/01/26 02:57:47;;;;;;;1.75;1.02;;;-4.50;99.90;;;;;;5056781;28;20162;-75
2022/01/26 03:00:24;;;;;;;2.22;1.00;;;-4.60;99.90;;;;;;5055196;28;20029;-76
2022/01/26 03:38:59;;;;;;;2.47;1.10;;;-4.70;99.90;;;;;;4991029;28;20065;-72
2022/01/26 03:41:38;;;;;;;4.65;1.40;;;-4.70;99.90;;;;;;4994915;28;20432;-72
2022/01/26 03:44:04;;;;;;;5.05;1.20;;;-4.70;99.90;;;;;;4994101;28;20034;-69
2022/01/26 03:46:31;;;;;;;3.03;1.17;;;-4.60;99.90;;;;;;4994932;28;20060;-69
2022/01/26 03:48:57;;;;;;;6.07;1.10;;;-4.70;99.90;;;;;;5011949;28;20122;-69
2022/01/26 03:51:22;;;;;;;1.98;1.15;;;-4.60;99.90;;;;;;5014387;28;20105;-71
2022/01/26 03:53:48;;;;;;;0.88;0.88;;;-4.70;99.90;;;;;;5014284;28;20021;-71
2022/01/26 03:56:14;;;;;;;1.40;1.00;;;-4.70;99.90;;;;;;5013982;28;20408;-70
2022/01/26 03:58:40;;;;;;;2.42;1.10;;;-4.70;99.90;;;;;;5013933;28;20048;-70
2022/01/26 04:01:06;;;;;;;1.50;0.98;;;-4.70;99.90;;;;;;5013897;28;20018;-70
2022/01/26 04:03:31;;;;;;;3.35;1.10;;;-4.70;99.90;;;;;;5013798;28;20120;-73
2022/01/26 04:05:57;;;;;;;4.50;1.50;;;-4.80;99.90;;;;;;5013775;28;20037;-71
2022/01/26 04:08:28;;;;;;;6.38;1.50;;;-4.80;99.90;;;;;;5013830;28;20031;-73
2022/01/26 04:13:20;;;;;;;1.20;1.10;;;-4.70;99.90;;;;;;5013594;28;20053;-71
2022/01/26 04:15:46;;;;;;;3.35;1.10;;;-4.70;99.90;;;;;;5013665;28;20049;-71
2022/01/26 04:18:16;;;;;;;4.32;1.60;;;-4.80;99.90;;;;;;5013451;28;20038;-70
2022/01/26 04:20:46;;;;;;;2.35;1.00;;;-4.80;99.90;;;;;;5013709;28;20584;-70
2022/01/26 04:23:20;;;;;;;1.40;1.30;;;-4.80;99.90;;;;;;5013814;28;20141;-71
2022/01/26 04:25:48;;;;;;;4.22;1.08;;;-4.90;99.90;;;;;;5013634;28;20025;-71
2022/01/26 04:28:29;;;;;;;2.38;1.10;;;-5.00;99.90;;;;;;5013628;28;20044;-71
2022/01/26 04:30:54;;;;;;;3.15;1.40;;;-5.00;99.90;;;;;;5013592;28;20469;-71
2022/01/26 04:33:20;;;;;;;2.15;1.10;;;-5.00;99.90;;;;;;5013454;28;20168;-71
2022/01/26 04:35:47;;;;;;;1.30;1.20;;;-5.00;99.90;;;;;;5013591;28;20021;-71
2022/01/26 04:43:32;;;;;;;1.15;1.02;;;-4.90;99.90;;;;;;5013198;28;20041;-71
2022/01/26 04:45:58;;;;;;;1.98;1.00;;;-4.90;99.90;;;;;;5011919;28;20100;-70
2022/01/26 04:48:25;;;;;;;4.50;1.20;;;-4.90;99.90;;;;;;5011652;28;20113;-71
2022/01/26 04:50:52;;;;;;;2.55;0.98;;;-4.90;99.90;;;;;;5013057;28;20155;-71
2022/01/26 04:53:18;;;;;;;4.10;1.27;;;-4.90;99.90;;;;;;5012766;28;20034;-71
2022/01/26 04:55:44;;;;;;;1.52;1.00;;;-4.90;99.90;;;;;;5012225;28;20022;-72
2022/01/26 04:58:09;;;;;;;3.70;1.17;;;-4.80;99.90;;;;;;5012574;28;20056;-72
2022/01/26 05:00:35;;;;;;;6.03;1.13;;;-4.90;99.90;;;;;;5028145;28;20018;-72
2022/01/26 05:03:01;;;;;;;2.72;1.08;;;-4.90;99.90;;;;;;5012570;28;20033;-72
2022/01/26 05:05:27;;;;;;;2.28;1.30;;;-4.90;99.90;;;;;;5012671;28;20033;-72
2022/01/26 05:07:53;;;;;;;5.80;1.20;;;-4.90;99.90;;;;;;5012625;28;20029;-70
2022/01/26 05:10:18;;;;;;;3.40;1.10;;;-4.90;99.90;;;;;;5012638;28;20058;-71
2022/01/26 05:12:44;;;;;;;1.63;1.15;;;-4.80;99.90;;;;;;5012906;28;20032;-71
2022/01/26 05:15:10;;;;;;;2.25;1.00;;;-4.80;99.90;;;;;;5012572;28;20040;-72
2022/01/26 05:17:38;;;;;;;1.70;1.30;;;-4.80;99.90;;;;;;5012358;28;20576;-71
2022/01/26 05:20:09;;;;;;;3.25;1.15;;;-4.80;99.90;;;;;;5012281;28;20029;-72
2022/01/26 05:22:40;;;;;;;;;;;-4.80;99.90;;;;;;5012788;28;20045;-72
2022/01/26 05:25:06;;;;;;;;;;;-4.70;99.90;;;;;;5012899;28;19906;-71
2022/01/26 05:27:31;;;;;;;2.60;0.90;;;-4.80;99.90;;;;;;5012245;28;20016;-71
2022/01/26 05:29:58;;;;;;;1.10;1.10;;;-4.80;99.90;;;;;;5012515;28;20029;-77
2022/01/26 05:32:24;;;;;;;1.83;1.23;;;-4.80;99.90;;;;;;5012278;28;20036;-77
2022/01/26 05:34:50;;;;;;;2.28;1.23;;;-4.70;99.90;;;;;;5012421;28;20112;-72
2022/01/26 05:37:16;;;;;;;1.20;1.10;;;-4.70;99.90;;;;;;5011732;28;20042;-73
2022/01/26 05:39:42;;;;;;;1.88;1.42;;;-4.70;99.90;;;;;;5012318;28;20052;-74
2022/01/26 05:42:08;;;;;;;7.47;1.85;;;-4.40;99.90;;;;;;5027065;28;20026;-75
2022/01/26 05:44:34;;;;;;;4.20;1.63;;;-4.00;99.90;;;;;;5012329;28;20026;-74
2022/01/26 05:47:00;;;;;;;6.05;1.92;;;-3.90;99.90;;;;;;5012452;28;20027;-72
2022/01/26 05:49:26;;;;;;;3.85;1.75;;;-4.00;99.90;;;;;;5011613;28;20504;-72
2022/01/26 05:51:53;;;;;;;2.95;1.50;;;-4.10;99.90;;;;;;5011699;28;20053;-69
2022/01/26 05:54:19;;;;;;;4.80;1.80;;;-4.20;99.90;;;;;;5008573;28;20032;-72
2022/01/26 05:56:47;;;;;;;3.58;1.88;;;-4.20;99.90;;;;;;5006215;28;20026;-70
2022/01/26 05:59:19;;;;;;;5.95;1.90;;;-4.20;99.90;;;;;;5005960;28;20129;-74
2022/01/26 06:01:45;;;;;;;3.20;1.65;;;-4.30;99.90;;;;;;5011006;28;20109;-70
2022/01/26 06:04:11;;;;;;;7.10;2.25;;;-4.20;99.90;;;;;;5008551;28;20061;-78
2022/01/26 06:06:37;;;;;;;5.18;2.67;;;-4.30;99.90;;;;;;5010836;28;20512;-74
2022/01/26 06:09:03;;;;;;;5.38;2.10;;;-4.30;99.90;;;;;;5012689;28;20485;-78
2022/01/26 06:11:29;;;;;;;3.03;2.00;;;-4.30;99.90;;;;;;5015397;28;20022;-74
2022/01/26 06:13:55;;;;;;;8.15;2.00;;;-4.30;99.90;;;;;;5014949;28;20029;-70
2022/01/26 06:16:24;;;;;;;6.55;1.83;;;-4.40;99.90;;;;;;5015139;28;20362;-69
2022/01/26 06:18:50;;;;;;;2.92;1.58;;;-4.30;99.90;;;;;;5014944;28;20147;-70
2022/01/26 06:21:15;;;;;;;4.25;1.63;;;-4.30;99.90;;;;;;5014654;28;20120;-70
2022/01/26 06:23:42;;;;;;;2.67;1.60;;;-4.20;99.90;;;;;;5015355;28;20368;-69
2022/01/26 06:26:08;;;;;;;4.78;1.38;;;-4.20;99.90;;;;;;5014658;28;20049;-69
2022/01/26 06:28:34;;;;;;;3.38;1.52;;;-4.30;99.90;;;;;;5015507;28;20036;-69
2022/01/26 06:31:10;;;;;;;5.35;1.50;;;-4.20;99.90;;;;;;5015713;28;20097;-70
2022/01/26 06:33:39;;;;;;;10.35;1.65;;;-4.20;99.90;;;;;;5015491;28;20079;-70
2022/01/26 06:36:05;;;;;;;2.45;1.30;;;-3.90;99.90;;;;;;5015678;28;20076;-70
2022/01/26 06:38:31;;;;;;;1.90;1.00;;;-3.80;99.90;;;;;;5015063;28;20500;-70
2022/01/26 06:40:58;;;;;;;2.28;1.40;;;-3.90;99.90;;;;;;5015550;28;20377;-69
2022/01/26 06:43:28;;;;;;;3.42;1.27;;;-3.90;99.90;;;;;;5015439;28;20081;-71
2022/01/26 06:46:04;;;;;;;5.22;1.77;;;-4.00;99.90;;;;;;5015334;28;20504;-71
2022/01/26 06:51:09;;;;;;;3.55;1.55;;;-3.90;99.90;;;;;;5015198;28;20423;-71
2022/01/26 06:53:35;;;;;;;1.70;1.38;;;-3.90;99.90;;;;;;5015049;28;20469;-71
2022/01/26 06:56:01;;;;;;;6.50;2.97;;;-3.80;99.90;;;;;;5015381;28;20030;-72
2022/01/26 06:58:26;;;;;;;4.90;1.38;;;-3.80;99.90;;;;;;5014842;28;20131;-72
2022/01/26 07:00:52;;;;;;;1.85;1.25;;;-3.80;99.90;;;;;;5015368;28;20032;-73
2022/01/26 07:03:18;;;;;;;3.38;1.48;;;-3.80;99.90;;;;;;5015132;28;20493;-72
2022/01/26 07:05:44;;;;;;;2.80;1.35;;;-3.80;99.90;;;;;;5015021;28;20112;-72
2022/01/26 07:08:10;;;;;;;3.80;1.58;;;-3.80;99.90;;;;;;5014729;28;20161;-74
2022/01/26 07:10:36;;;;;;;1.63;1.33;;;-3.80;99.90;;;;;;5015052;28;20046;-73
2022/01/26 07:13:02;;;;;;;2.78;1.60;;;-3.20;99.90;;;;;;5013663;28;20026;-75
2022/01/26 07:23:24;;;;;;;6.72;1.30;;;-2.70;99.90;;;;;;5014607;28;20068;-75
2022/01/26 07:25:50;;;;;;;3.65;1.20;;;-2.90;99.90;;;;;;5014761;28;20484;-75
2022/01/26 07:28:16;;;;;;;4.63;1.30;;;-2.90;99.90;;;;;;5014458;28;20029;-75
2022/01/26 07:30:42;;;;;;;6.88;1.48;;;-3.00;99.90;;;;;;5014536;28;20088;-75
2022/01/26 07:33:08;;;;;;;3.58;1.13;;;-3.10;99.90;;;;;;5014363;28;20030;-75
2022/01/26 07:35:34;;;;;;;3.22;1.33;;;-3.20;99.90;;;;;;5013291;28;20018;-75
2022/01/26 07:38:02;;;;;;;4.60;1.38;;;-3.30;99.90;;;;;;5014075;28;20053;-76
2022/01/26 07:40:29;;;;;;;4.03;1.40;;;-3.30;99.90;;;;;;5014242;28;20481;-75
2022/01/26 07:42:55;;;;;;;5.70;1.63;;;-3.30;99.90;;;;;;5014543;28;20389;-74
2022/01/26 07:45:21;;;;;;;3.33;1.40;;;-3.40;99.90;;;;;;5014137;28;20036;-77
2022/01/26 07:47:51;;;;;;;10.35;2.33;;;-3.40;99.90;;;;;;5014330;28;20026;-70
2022/01/26 07:50:18;;;;;;;6.70;1.50;;;-3.40;99.90;;;;;;5014496;28;20092;-71
2022/01/26 07:52:43;;;;;;;8.98;1.77;;;-3.20;99.90;;;;;;5013989;28;20436;-71
2022/01/26 07:55:16;;;;;;;8.80;1.70;;;-3.00;99.90;;;;;;5013724;28;20021;-72
2022/01/26 07:57:45;;;;;;;2.92;1.33;;;-2.20;99.90;;;;;;5013962;28;20022;-73
2022/01/26 08:00:12;;;;;;;10.02;1.50;;;-1.80;99.90;;;;;;5013656;28;20029;-72
2022/01/26 08:02:38;;;;;;;3.13;1.30;;;-2.10;99.90;;;;;;5014020;28;20440;-72
2022/01/26 08:05:04;;;;;;;5.13;1.42;;;-2.30;99.90;;;;;;5014064;28;20061;-75
2022/01/26 08:07:29;;;;;;;5.60;1.40;;;-2.50;99.90;;;;;;5013874;28;20420;-72
2022/01/26 08:09:55;;;;;;;11.80;1.92;;;-2.70;99.90;;;;;;5013726;28;20049;-74
2022/01/26 08:12:21;;;;;;;6.43;1.70;;;-2.80;99.90;;;;;;5012362;28;20037;-73
2022/01/26 08:14:47;;;;;;;1.95;1.20;;;-2.80;99.90;;;;;;5012461;28;20080;-74
2022/01/26 08:17:15;;;;;;;5.63;1.70;;;-2.90;99.90;;;;;;5013114;28;20037;-74
2022/01/26 08:19:41;;;;;;;3.83;1.50;;;-2.90;99.90;;;;;;5013423;28;20524;-74
2022/01/26 08:22:08;;;;;;;3.63;1.50;;;-2.90;99.90;;;;;;5013062;28;20061;-73
2022/01/26 08:24:34;;;;;;;8.52;1.90;;;-2.90;99.90;;;;;;5013264;28;20029;-74
2022/01/26 08:27:07;;;;;;;6.30;2.13;;;-2.90;99.90;;;;;;5013215;28;20079;-74
2022/01/26 08:29:41;;;;;;;8.98;2.30;;;-2.90;99.90;;;;;;5006019;28;20549;-74
2022/01/26 08:32:07;;;;;;;7.80;2.20;;;-2.90;99.90;;;;;;5009552;28;20037;-74
2022/01/26 08:34:33;;;;;;;8.75;1.85;;;-2.90;99.90;;;;;;5012416;28;20038;-74
2022/01/26 08:36:59;;;;;;;9.90;2.20;;;-2.90;99.90;;;;;;5011259;28;20485;-74
2022/01/26 08:39:25;;;;;;;10.48;2.30;;;-2.90;99.90;;;;;;5012459;28;20089;-74
2022/01/26 08:41:51;;;;;;;6.03;1.70;;;-2.90;99.90;;;;;;5012912;28;20535;-74
2022/01/26 08:44:16;;;;;;;8.80;1.92;;;-2.90;99.90;;;;;;5013128;28;20026;-71
2022/01/26 08:46:43;;;;;;;4.00;1.73;;;-2.90;99.90;;;;;;5012951;28;20028;-74
2022/01/26 08:49:09;;;;;;;7.25;2.22;;;-2.70;99.90;;;;;;5011727;28;20549;-72
2022/01/26 08:51:35;;;;;;;3.85;1.55;;;-2.40;99.90;;;;;;5012904;28;20088;-72
2022/01/26 08:54:02;;;;;;;6.57;1.83;;;-2.50;99.90;;;;;;5011652;28;20527;-72
2022/01/26 08:56:28;;;;;;;5.10;1.50;;;-2.60;99.90;;;;;;5012690;28;20030;-72
2022/01/26 08:58:54;;;;;;;3.22;1.50;;;-2.60;99.90;;;;;;5012889;28;20088;-72
2022/01/26 09:01:20;;;;;;;4.35;1.50;;;-2.60;99.90;;;;;;5009541;28;20113;-72
2022/01/26 09:03:46;;;;;;;4.25;1.63;;;-2.70;99.90;;;;;;5011026;28;20041;-72
2022/01/26 09:06:12;;;;;;;5.88;1.65;;;-2.70;99.90;;;;;;5011926;28;20017;-71
2022/01/26 09:08:41;;;;;;;6.95;1.60;;;-2.70;99.90;;;;;;5012167;28;20069;-75
2022/01/26 09:11:10;;;;;;;3.85;1.80;;;-2.70;99.90;;;;;;5012272;28;20478;-72
2022/01/26 09:13:36;;;;;;;4.05;1.52;;;-2.70;99.90;;;;;;5011922;28;20030;-72
2022/01/26 09:16:07;;;;;;;2.17;1.60;;;-2.70;99.90;;;;;;5012169;28;20029;-72
2022/01/26 09:18:45;;;;;;;3.35;1.63;;;-2.70;99.90;;;;;;5012111;28;20052;-72
2022/01/26 09:21:11;;;;;;;4.43;1.88;;;-2.60;99.90;;;;;;5012283;28;20030;-71
2022/01/26 09:23:37;;;;;;;2.22;1.42;;;-2.60;99.90;;;;;;5011946;28;20026;-71
2022/01/26 09:26:04;;;;;;;2.17;1.40;;;-2.60;99.90;;;;;;5012052;28;20492;-72
2022/01/26 09:28:29;;;;;;;3.83;1.70;;;-2.60;99.90;;;;;;5011764;28;20022;-70
2022/01/26 09:30:55;;;;;;;1.48;1.30;;;-2.60;99.90;;;;;;5011785;28;20021;-73
2022/01/26 09:33:21;;;;;;;4.35;1.48;;;-1.90;99.90;;;;;;5012078;28;20068;-72
2022/01/26 09:35:48;;;;;;;5.97;1.50;;;0.20;99.90;;;;;;5012437;28;20022;-75
2022/01/26 09:38:13;;;;;;;3.70;1.30;;;-0.10;99.90;;;;;;5011923;28;20089;-74
2022/01/26 09:40:39;;;;;;;7.32;2.10;;;-0.60;99.90;;;;;;5013514;28;20053;-74
2022/01/26 09:43:06;;;;;;;3.05;1.58;;;-0.90;99.90;;;;;;5012284;28;20034;-76
2022/01/26 09:45:34;;;;;;;5.97;1.77;;;-1.20;99.90;;;;;;5011774;28;20018;-71
2022/01/26 09:48:02;;;;;;;7.32;1.63;;;-1.50;99.90;;;;;;5011851;28;20030;-72
2022/01/26 09:50:28;;;;;;;5.25;1.58;;;-1.60;99.90;;;;;;5011950;28;20022;-71
2022/01/26 09:52:55;;;;;;;3.92;1.38;;;-1.70;99.90;;;;;;5012018;28;20044;-72
2022/01/26 09:55:21;;;;;;;6.75;1.40;;;-1.80;99.90;;;;;;5011872;28;20032;-72
2022/01/26 09:57:47;;;;;;;7.30;1.45;;;-1.80;99.90;;;;;;5011991;28;20113;-71
2022/01/26 10:00:14;;;;;;;4.03;1.38;;;-1.80;99.90;;;;;;5012168;28;20117;-77
2022/01/26 10:02:43;;;;;;;9.18;1.67;;;-1.50;99.90;;;;;;5012381;28;20121;-74
2022/01/26 10:05:11;;;;;;;5.90;1.83;;;-1.60;99.90;;;;;;5012034;28;20034;-75
2022/01/26 10:08:08;;;;;;;5.97;1.60;;;-1.70;99.90;;;;;;5010592;28;20026;-74
2022/01/26 10:15:27;;;;;;;3.55;1.52;;;-1.70;99.90;;;;;;4999985;28;20541;-74
2022/01/26 10:19:02;;;;;;;7.93;2.20;;;-1.70;99.90;;;;;;5011224;28;20038;-74
2022/01/26 10:21:28;;;;;;;6.72;2.15;;;-1.80;99.90;;;;;;5011429;28;20026;-74
2022/01/26 10:23:57;;;;;;;9.63;2.40;;;-1.80;99.90;;;;;;5011460;28;20052;-77
2022/01/26 10:26:23;;;;;;;8.57;2.22;;;-1.80;99.90;;;;;;5010887;28;20056;-76
2022/01/26 10:28:57;;;;;;;17.38;2.58;;;-1.80;99.90;;;;;;5005756;28;20053;-78
2022/01/26 10:31:39;;;;;;;10.10;2.60;;;-1.70;99.90;;;;;;5011220;28;20068;-78
2022/01/26 10:34:12;;;;;;;12.25;2.90;;;-1.70;99.90;;;;;;5011698;28;20065;-78
2022/01/26 10:36:50;;;;;;;11.32;3.75;;;-1.70;99.90;;;;;;5011579;28;20030;-78
2022/01/26 10:39:27;;;;;;;11.65;2.83;;;-1.60;99.90;;;;;;5011619;28;20430;-78
2022/01/26 10:41:56;;;;;;;20.10;2.88;;;-1.60;99.90;;;;;;5009988;28;20022;-75
2022/01/26 10:45:15;;;;;;;12.27;3.78;;;-1.60;99.90;;;;;;4998822;28;20033;-75
2022/01/26 10:47:41;;;;;;;15.13;3.65;;;-1.60;99.90;;;;;;4995819;28;20046;-75
2022/01/26 10:53:05;;;;;;;12.68;4.05;;;-1.60;99.90;;;;;;5007579;28;20057;-73
2022/01/26 10:55:33;;;;;;;11.65;3.72;;;-1.50;99.90;;;;;;4997433;28;20147;-80
2022/01/26 10:58:00;;;;;;;11.40;4.43;;;-1.60;99.90;;;;;;5005573;28;20129;-74
2022/01/26 11:00:26;;;;;;;17.48;4.28;;;-1.60;99.90;;;;;;5013864;28;20397;-74
2022/01/26 11:02:57;;;;;;;10.30;3.83;;;-1.50;99.90;;;;;;5014333;28;20026;-74
2022/01/26 11:05:23;;;;;;;17.92;4.10;;;-1.50;99.90;;;;;;5014541;28;20025;-74
2022/01/26 11:07:50;;;;;;;14.50;3.35;;;-1.50;99.90;;;;;;5014547;28;20048;-72
2022/01/26 11:10:17;;;;;;;12.95;4.03;;;-1.40;99.90;;;;;;5014262;28;20025;-73
2022/01/26 11:12:44;;;;;;;14.90;4.53;;;-1.40;99.90;;;;;;5014174;28;20030;-74
2022/01/26 11:15:15;;;;;;;13.45;3.42;;;-1.40;99.90;;;;;;5012153;28;20034;-75
2022/01/26 11:17:46;;;;;;;14.57;4.28;;;-1.30;99.90;;;;;;5014874;28;20034;-75
2022/01/26 11:20:18;;;;;;;10.10;3.88;;;-1.30;99.90;;;;;;5014936;28;20084;-73
2022/01/26 11:22:56;;;;;;;10.77;3.85;;;-1.30;99.90;;;;;;5014788;28;20109;-74
2022/01/26 11:25:24;;;;;;;17.38;4.32;;;-1.20;99.90;;;;;;5014621;28;20055;-74
2022/01/26 11:27:51;;;;;;;12.63;4.00;;;-1.20;99.90;;;;;;5014672;28;20432;-74
2022/01/26 11:30:27;;;;;;;13.60;4.10;;;-1.10;99.90;;;;;;5014858;28;20121;-74
2022/01/26 11:33:00;;;;;;;11.73;3.88;;;-1.20;99.90;;;;;;5014862;28;20062;-74
2022/01/26 11:35:37;;;;;;;28.35;4.00;;;-1.10;99.90;;;;;;5014306;28;20018;-74
2022/01/26 11:47:08;;;;;;;17.42;3.90;;;-1.00;99.90;;;;;;5014612;28;20570;-73
2022/01/26 11:49:37;;;;;;;22.02;5.47;;;-1.00;99.90;;;;;;5014054;28;20081;-72
2022/01/26 11:52:03;;;;;;;16.42;5.07;;;-1.00;99.90;;;;;;5014159;28;20109;-72
2022/01/26 11:54:49;;;;;;;16.95;4.45;;;-0.90;99.90;;;;;;5013983;28;20064;-73
2022/01/26 11:57:17;;;;;;;21.67;4.82;;;-0.90;99.90;;;;;;5014022;28;20036;-72
2022/01/26 11:59:51;;;;;;;15.88;4.53;;;-0.90;99.90;;;;;;5014071;28;20038;-72
2022/01/26 12:02:34;;;;;;;14.80;3.83;;;-0.90;99.90;;;;;;5014018;28;20060;-72
2022/01/26 12:05:05;;;;;;;17.52;4.43;;;-0.90;99.90;;;;;;5013404;28;20362;-72
2022/01/26 12:07:32;;;;;;;17.42;4.45;;;-0.90;99.90;;;;;;5013736;28;20092;-73
2022/01/26 12:09:57;;;;;;;9.23;3.40;;;-0.90;99.90;;;;;;5013794;28;20026;-72
2022/01/26 12:12:24;;;;;;;13.75;3.95;;;-0.90;99.90;;;;;;5013724;28;20056;-73
2022/01/26 12:15:06;;;;;;;14.27;4.13;;;-0.80;99.90;;;;;;5013655;28;20664;-73
2022/01/26 12:17:37;;;;;;;11.55;4.05;;;-0.80;99.90;;;;;;5013517;28;20433;-73
2022/01/26 12:32:10;;;;;;;16.48;3.72;;;-0.80;99.90;;;;;;5013516;28;20034;-73
2022/01/26 12:34:47;;;;;;;15.85;4.07;;;-0.70;99.90;;;;;;5013487;28;20029;-73
2022/01/26 12:45:23;;;;;;;20.05;4.10;;;-0.70;99.90;;;;;;5013151;28;20048;-73
2022/01/26 12:47:55;;;;;;;13.25;3.88;;;-0.70;99.90;;;;;;5012888;28;20018;-75
2022/01/26 12:50:23;;;;;;;13.38;4.05;;;-0.60;99.90;;;;;;5013036;28;20079;-76
2022/01/26 12:52:52;;;;;;;9.25;1.90;;;-0.60;99.90;;;;;;5011722;28;20026;-75
2022/01/26 12:55:27;;;;;;;18.75;4.75;;;-0.50;99.90;;;;;;5011590;28;20029;-74
2022/01/26 12:57:54;;;;;;;22.73;4.47;;;0.80;99.90;;;;;;5011284;28;20034;-76
2022/01/26 13:00:21;;;;;;;15.38;3.83;;;0.80;99.90;;;;;;5012802;28;20064;-75
2022/01/26 13:02:48;;;;;;;12.98;3.90;;;0.40;99.90;;;;;;5013041;28;20050;-75
2022/01/26 13:05:16;;;;;;;13.57;4.40;;;0.20;99.90;;;;;;5012691;28;20033;-75
2022/01/26 13:07:43;;;;;;;15.77;4.65;;;0.10;99.90;;;;;;5012485;28;20022;-75
2022/01/26 13:10:16;;;;;;;15.23;5.32;;;0.10;99.90;;;;;;5012923;28;20076;-75
2022/01/26 13:12:42;;;;;;;15.82;5.00;;;0.00;99.90;;;;;;5012717;28;20053;-75
2022/01/26 13:15:19;;;;;;;16.25;5.00;;;0.00;99.90;;;;;;5012341;28;20061;-75
2022/01/26 13:18:15;;;;;;;17.58;5.38;;;0.00;99.90;;;;;;5012399;28;20041;-80
2022/01/26 13:31:03;;;;;;;10.65;3.28;;;-0.10;99.90;;;;;;5012180;28;20022;-78
2022/01/26 13:36:40;;;;;;;16.33;4.95;;;0.30;99.90;;;;;;5012694;28;20033;-73
2022/01/26 13:45:24;;;;;;;13.20;4.32;;;-0.10;99.90;;;;;;5012276;28;20037;-72
2022/01/26 13:50:34;;;;;;;15.25;4.68;;;-0.10;99.90;;;;;;5011888;28;20062;-73
2022/01/26 13:53:10;;;;;;;11.88;4.40;;;-0.10;99.90;;;;;;5009065;28;20053;-74
2022/01/26 13:56:34;;;;;;;12.32;4.60;;;-0.10;99.90;;;;;;5005868;28;20021;-73
2022/01/26 14:01:00;;;;;;;10.30;4.25;;;-0.10;99.90;;;;;;5008347;28;20037;-72
2022/01/26 14:03:30;;;;;;;16.52;4.50;;;-0.10;99.90;;;;;;5006912;28;20396;-72
2022/01/26 14:05:55;;;;;;;13.50;4.10;;;-0.10;99.90;;;;;;5011248;28;20056;-71
2022/01/26 14:08:22;;;;;;;11.85;4.70;;;0.20;99.90;;;;;;5011470;28;20014;-73
2022/01/26 14:10:49;;;;;;;12.52;4.78;;;0.60;99.90;;;;;;5009841;28;20022;-72
2022/01/26 14:13:19;;;;;;;15.50;5.22;;;0.50;99.90;;;;;;5011464;28;20022;-72
2022/01/26 14:15:49;;;;;;;8.63;4.35;;;0.40;99.90;;;;;;5010838;28;20101;-73
2022/01/26 14:24:24;;;;;;;16.65;5.18;;;0.20;99.90;;;;;;5012047;28;20049;-73
2022/01/26 14:26:22;;;;;;;13.00;4.45;;;0.10;99.90;;;;;;5008533;28;20125;-73
2022/01/26 14:28:49;;;;;;;9.40;4.68;;;0.10;99.90;;;;;;5015586;28;20519;-73
2022/01/26 16:08:00;;;;;;;14.55;6.50;;;0.10;99.90;;;;;;5014194;28;20021;-74
2022/01/26 16:54:02;;;;;;;15.20;5.13;;;0.10;99.90;;;;;;5015794;28;20569;-79
2022/01/26 18:49:21;;;;;;;22.30;7.75;;;0.10;99.90;;;;;;5006541;28;20032;-73
2022/01/26 18:51:49;;;;;;;26.33;8.00;;;0.20;99.90;;;;;;5018233;28;20034;-74
2022/01/26 18:54:16;;;;;;;25.88;8.00;;;0.20;99.90;;;;;;5018218;28;20469;-75
2022/01/26 18:56:42;;;;;;;27.73;8.85;;;0.20;99.90;;;;;;5017932;28;20030;-73
2022/01/26 18:59:10;;;;;;;21.60;7.82;;;0.20;99.90;;;;;;5018392;28;20477;-73
2022/01/26 19:01:36;;;;;;;24.38;8.00;;;0.20;99.90;;;;;;5016675;28;20447;-73
2022/01/26 19:04:02;;;;;;;23.65;7.68;;;0.20;99.90;;;;;;5033200;28;20481;-73
2022/01/26 19:06:28;;;;;;;22.40;7.70;;;0.60;99.90;;;;;;5018083;28;20018;-75
2022/01/26 19:08:54;;;;;;;25.60;8.25;;;0.70;99.90;;;;;;5016840;28;20096;-75
2022/01/26 19:11:21;;;;;;;29.02;11.50;;;0.90;99.90;;;;;;5015461;28;20054;-73
2022/01/26 19:13:48;;;;;;;74.68;26.77;;;0.80;99.90;;;;;;5015384;28;20080;-73
2022/01/26 19:16:26;;;;;;;32.88;10.50;;;0.60;99.90;;;;;;5014168;28;20064;-74
2022/01/26 19:21:56;;;;;;;18.92;6.40;;;0.50;99.90;;;;;;5014973;28;20022;-74
2022/01/26 19:27:01;;;;;;;25.90;10.82;;;0.40;99.90;;;;;;5014766;28;20045;-70
2022/01/26 19:50:54;;;;;;;16.90;5.82;;;0.20;99.90;;;;;;5014132;28;20033;-79
2022/01/26 19:53:20;;;;;;;14.30;6.15;;;0.20;99.90;;;;;;5013498;28;20030;-80
2022/01/26 19:55:45;;;;;;;21.23;6.03;;;0.20;99.90;;;;;;5014875;28;20088;-80
2022/01/26 19:58:11;;;;;;;17.83;5.72;;;0.20;99.90;;;;;;4995008;28;20038;-80
2022/01/26 20:00:43;;;;;;;16.90;6.75;;;0.20;99.90;;;;;;4994757;28;20124;-78
2022/01/26 20:03:10;;;;;;;21.73;6.22;;;0.20;99.90;;;;;;4994441;28;20113;-77
2022/01/26 20:05:36;;;;;;;11.25;5.40;;;0.20;99.90;;;;;;4994324;28;20097;-78
2022/01/26 20:08:10;;;;;;;21.20;6.97;;;0.20;99.90;;;;;;4994360;28;20464;-78
2022/01/26 20:10:41;;;;;;;17.23;6.15;;;0.20;99.90;;;;;;4994359;28;20066;-78
2022/01/26 20:13:18;;;;;;;16.35;5.65;;;0.20;99.90;;;;;;4999222;28;20026;-78
2022/01/26 20:15:43;;;;;;;19.63;5.93;;;0.20;99.90;;;;;;5013264;28;20025;-78
2022/01/26 20:18:09;;;;;;;16.98;5.72;;;0.10;99.90;;;;;;5013348;28;20129;-78
2022/01/26 20:20:35;;;;;;;16.85;5.60;;;0.10;99.90;;;;;;5013979;28;20018;-77
2022/01/26 20:23:01;;;;;;;15.38;6.03;;;0.10;99.90;;;;;;5013557;28;20545;-77
2022/01/26 20:25:26;;;;;;;16.52;5.80;;;0.10;99.90;;;;;;5013341;28;20026;-79
2022/01/26 20:27:52;;;;;;;19.98;5.72;;;0.10;99.90;;;;;;5012024;28;20080;-78
2022/01/26 20:30:21;;;;;;;15.75;5.97;;;0.10;99.90;;;;;;5012655;28;20152;-78
2022/01/26 20:32:48;;;;;;;21.88;5.70;;;0.10;99.90;;;;;;5013365;28;20020;-77
2022/01/26 20:35:19;;;;;;;15.50;5.75;;;0.10;99.90;;;;;;5013673;28;20030;-77
2022/01/26 20:37:45;;;;;;;;;;;0.30;99.90;;;;;;5013611;28;20054;-76